Time;durP1;ratioP1;P1;durP2;ratioP2;P2;SDS_P1;SDS_P2;PMS_P1;PMS_P2;Temp;Humidity;BMP_temperature;BMP_pressure;BME280_temperature;BME280_humidity;BME280_pressure;Samples;Min_cycle;Max_cycle;Signal;HPM_P1;HPM_P2
2021/07/05 00:01:34;;;;;;;2.20;1.50;;;;;;;16.59;89.17;100085.06;5057029;28;20037;-79
2021/07/05 00:03:59;;;;;;;3.00;1.58;;;;;;;16.59;88.67;100085.91;5040922;28;20029;-80
2021/07/05 00:06:25;;;;;;;2.97;1.50;;;;;;;16.61;88.67;100077.66;5049615;28;20075;-79
2021/07/05 00:08:50;;;;;;;3.72;1.50;;;;;;;16.58;88.73;100075.41;5035876;28;20025;-79
2021/07/05 00:11:16;;;;;;;2.47;1.30;;;;;;;16.54;89.38;100077.66;5034249;28;20113;-79
2021/07/05 00:13:41;;;;;;;2.40;1.30;;;;;;;16.55;89.01;100081.97;5034226;28;20038;-79
2021/07/05 00:16:08;;;;;;;2.72;1.48;;;;;;;16.52;89.29;100079.72;5038576;28;20049;-79
2021/07/05 00:18:33;;;;;;;2.40;1.50;;;;;;;16.52;89.07;100083.19;5047634;28;20038;-79
2021/07/05 00:20:58;;;;;;;2.35;1.40;;;;;;;16.57;88.60;100085.28;5034687;28;20037;-79
2021/07/05 00:23:24;;;;;;;2.42;1.30;;;;;;;16.54;89.05;100082.97;5034394;28;20034;-79
2021/07/05 00:25:49;;;;;;;2.55;1.30;;;;;;;16.55;88.55;100077.44;5039652;28;20038;-79
2021/07/05 00:28:15;;;;;;;4.10;1.50;;;;;;;16.50;89.01;100073.75;5032133;28;20483;-79
2021/07/05 00:30:40;;;;;;;4.75;1.45;;;;;;;16.50;88.76;100079.09;5038242;28;20045;-79
2021/07/05 00:33:06;;;;;;;1.98;1.00;;;;;;;16.50;88.79;100073.75;5031843;28;20041;-79
2021/07/05 00:35:32;;;;;;;2.20;1.23;;;;;;;16.48;88.76;100086.47;5027136;28;20045;-79
2021/07/05 00:37:58;;;;;;;3.33;1.30;;;;;;;16.47;88.88;100087.47;5018213;28;20064;-78
2021/07/05 00:40:25;;;;;;;2.22;1.08;;;;;;;16.49;88.81;100085.44;5034122;28;20092;-77
2021/07/05 00:42:51;;;;;;;2.40;1.35;;;;;;;16.47;88.99;100084.81;5036610;28;20048;-78
2021/07/05 00:45:18;;;;;;;2.42;1.25;;;;;;;16.52;88.20;100085.06;5038727;28;20037;-79
2021/07/05 00:47:44;;;;;;;2.42;1.40;;;;;;;16.46;88.56;100083.19;5026429;28;20046;-78
2021/07/05 00:50:10;;;;;;;3.22;1.35;;;;;;;;;;5038503;28;20293;-78
2021/07/05 00:52:38;;;;;;;2.97;1.30;;;;;;;16.43;nan;99904.78;5020402;28;20629;-79
2021/07/05 00:55:06;;;;;;;2.60;1.20;;;;;;;16.43;nan;99902.13;5026788;28;20098;-78
2021/07/05 00:57:32;;;;;;;2.28;1.40;;;;;;;;;;5022692;28;20030;-78
2021/07/05 00:59:58;;;;;;;1.75;1.20;;;;;;;16.42;nan;99937.81;5020694;28;20044;-79
2021/07/05 01:02:24;;;;;;;2.17;1.30;;;;;;;;;;5032099;28;20093;-78
2021/07/05 01:04:50;;;;;;;3.15;1.23;;;;;;;;;;5037130;28;20041;-79
2021/07/05 01:07:16;;;;;;;2.00;1.33;;;;;;;16.36;nan;99950.16;5050344;28;20132;-79
2021/07/05 01:09:42;;;;;;;1.60;1.20;;;;;;;16.37;nan;99865.56;5030288;28;20126;-78
2021/07/05 01:12:09;;;;;;;2.03;1.20;;;;;;;16.40;nan;99883.84;5016143;28;20115;-79
2021/07/05 01:14:34;;;;;;;2.03;1.35;;;;;;;;;;5035728;28;20129;-79
2021/07/05 01:17:00;;;;;;;2.88;1.30;;;;;;;;;;5031497;28;20049;-79
2021/07/05 01:19:26;;;;;;;2.08;1.25;;;;;;;16.37;nan;99853.06;5032793;28;20034;-79
2021/07/05 01:21:52;;;;;;;1.70;1.10;;;;;;;16.35;nan;99853.28;5035510;28;20039;-79
2021/07/05 01:24:18;;;;;;;2.70;1.30;;;;;;;16.38;nan;99840.56;5035287;28;20109;-79
2021/07/05 01:26:43;;;;;;;2.10;1.08;;;;;;;16.34;nan;99850.81;5051642;28;20068;-79
2021/07/05 01:29:09;;;;;;;2.13;1.10;;;;;;;16.36;nan;99859.44;5036733;28;20030;-79
2021/07/05 01:31:35;;;;;;;1.80;1.20;;;;;;;16.37;nan;99877.06;5033519;28;20121;-78
2021/07/05 01:34:02;;;;;;;2.22;1.10;;;;;;;16.38;nan;99877.91;5030911;28;20038;-78
2021/07/05 01:36:27;;;;;;;2.00;1.15;;;;;;;;;;5034028;28;20036;-79
2021/07/05 01:38:52;;;;;;;3.20;1.37;;;;;;;;;;5030162;28;20034;-78
2021/07/05 01:41:18;;;;;;;2.30;1.20;;;;;;;;;;5027269;28;20283;-80
2021/07/05 01:43:43;;;;;;;2.53;1.30;;;;;;;16.36;nan;99870.09;5025345;28;20387;-80
2021/07/05 01:46:09;;;;;;;2.05;1.27;;;;;;;16.38;nan;99854.72;5035112;28;20053;-80
2021/07/05 01:48:34;;;;;;;1.90;1.20;;;;;;;16.38;nan;99845.91;5035373;28;20041;-80
2021/07/05 01:51:00;;;;;;;3.00;1.20;;;;;;;16.40;nan;99833.13;5051936;28;20033;-80
2021/07/05 01:53:25;;;;;;;1.60;1.10;;;;;;;;;;5028093;28;20033;-80
2021/07/05 01:55:52;;;;;;;2.37;1.30;;;;;;;;;;5028441;28;20105;-79
2021/07/05 01:58:17;;;;;;;1.80;1.15;;;;;;;16.35;nan;99853.28;5036688;28;20490;-80
2021/07/05 02:00:45;;;;;;;1.80;1.20;;;;;;;16.40;nan;100014.59;5027488;28;20235;-80
2021/07/05 02:03:11;;;;;;;1.95;1.20;;;;;;;16.50;nan;100047.06;5029932;28;20034;-80
2021/07/05 02:05:36;;;;;;;1.90;1.20;;;;;;;16.50;nan;100039.06;5022200;28;20056;-79
2021/07/05 02:08:03;;;;;;;1.88;1.20;;;;;;;16.51;nan;100046.84;5036373;28;20025;-79
2021/07/05 02:10:32;;;;;;;1.73;1.00;;;;;;;16.52;nan;100035.16;5022109;28;20034;-78
2021/07/05 02:13:02;;;;;;;1.63;1.10;;;;;;;16.57;nan;100034.56;5035363;28;20084;-79
2021/07/05 02:15:27;;;;;;;2.30;1.20;;;;;;;16.58;nan;100033.50;5035014;28;20149;-79
2021/07/05 02:17:53;;;;;;;2.75;1.38;;;;;;;16.59;nan;100021.84;5045455;28;20061;-79
2021/07/05 02:20:23;;;;;;;2.20;1.42;;;;;;;16.60;nan;100028.00;5048279;28;20037;-79
2021/07/05 02:22:51;;;;;;;3.42;1.35;;;;;;;16.64;nan;100019.38;5033438;28;20041;-79
2021/07/05 02:25:18;;;;;;;2.20;1.38;;;;;;;16.62;nan;100021.41;5035691;28;20037;-78
2021/07/05 02:27:44;;;;;;;3.10;1.40;;;;;;;16.69;nan;100018.75;5030538;28;20038;-79
2021/07/05 02:30:16;;;;;;;1.92;1.40;;;;;;;16.76;nan;100033.75;5023152;28;20034;-79
2021/07/05 02:32:42;;;;;;;3.60;1.30;;;;;;;16.80;nan;100026.16;5021340;28;20103;-79
2021/07/05 02:35:13;;;;;;;2.33;1.30;;;;;;;16.81;nan;100019.81;5041105;28;20042;-79
2021/07/05 02:37:40;;;;;;;2.58;1.23;;;;;;;16.87;nan;100018.16;5028162;28;20052;-79
2021/07/05 02:40:08;;;;;;;1.63;1.20;;;;;;;16.91;nan;100017.56;5033000;28;20033;-79
2021/07/05 02:42:35;;;;;;;2.22;1.30;;;;;;;16.96;nan;100015.09;5015949;28;20423;-79
2021/07/05 02:45:03;;;;;;;1.75;1.10;;;;;;;16.98;nan;100022.91;5028453;28;20297;-79
2021/07/05 02:47:28;;;;;;;2.80;1.23;;;;;;;17.00;nan;100020.03;5035051;28;20045;-79
2021/07/05 02:49:53;;;;;;;2.15;1.20;;;;;;;17.03;nan;100016.94;5046287;28;20037;-79
2021/07/05 02:52:19;;;;;;;2.40;1.38;;;;;;;17.07;nan;100010.16;5033410;28;20091;-79
2021/07/05 02:54:44;;;;;;;1.98;1.40;;;;;;;17.08;nan;100011.78;5037627;28;20387;-80
2021/07/05 02:57:09;;;;;;;1.90;1.27;;;;;;;17.06;nan;100012.00;5031134;28;20026;-79
2021/07/05 02:59:56;;;;;;;2.90;1.17;;;;;;;17.11;nan;100004.19;5036969;28;20046;-78
2021/07/05 03:02:21;;;;;;;2.65;1.42;;;;;;;17.15;nan;100012.59;5025313;28;20030;-79
2021/07/05 03:04:46;;;;;;;2.47;1.23;;;;;;;17.13;nan;100010.13;5019987;28;20399;-80
2021/07/05 03:07:16;;;;;;;2.20;1.30;;;;;;;17.16;nan;100006.22;5035402;28;20034;-80
2021/07/05 03:09:42;;;;;;;2.17;1.30;;;;;;;17.15;nan;100012.59;5039258;28;20065;-79
2021/07/05 03:12:10;;;;;;;3.00;1.30;;;;;;;17.11;nan;100009.53;5028346;28;20033;-77
2021/07/05 03:14:36;;;;;;;2.70;1.13;;;;;;;17.12;nan;100010.34;5034682;28;20426;-79
2021/07/05 03:17:01;;;;;;;2.05;1.40;;;;;;;17.11;nan;100006.03;5020761;28;20026;-79
2021/07/05 03:19:27;;;;;;;2.15;1.48;;;;;;;17.15;nan;100000.06;5042749;28;20041;-79
2021/07/05 03:21:53;;;;;;;3.53;1.30;;;;;;;17.17;nan;100000.69;5037041;28;20094;-79
2021/07/05 03:24:18;;;;;;;2.90;1.48;;;;;;;17.14;nan;100003.78;5030601;28;20094;-79
2021/07/05 03:26:43;;;;;;;2.17;1.50;;;;;;;17.17;nan;99995.34;5042679;28;20121;-79
2021/07/05 03:29:09;;;;;;;3.20;1.63;;;;;;;17.11;nan;100006.03;5028889;28;20060;-79
2021/07/05 03:31:34;;;;;;;2.05;1.33;;;;;;;17.10;nan;100002.53;5034413;28;20065;-80
2021/07/05 03:33:59;;;;;;;1.80;1.42;;;;;;;17.10;nan;100007.88;5025534;28;20268;-79
2021/07/05 03:36:25;;;;;;;1.55;1.10;;;;;;;17.09;nan;100006.25;5037946;28;20041;-78
2021/07/05 03:38:50;;;;;;;1.77;1.40;;;;;;;17.06;nan;100001.31;5032966;28;20041;-77
2021/07/05 03:41:15;;;;;;;3.85;1.45;;;;;;;17.06;nan;99993.28;5037114;28;20034;-79
2021/07/05 03:43:41;;;;;;;2.15;1.35;;;;;;;17.11;nan;99990.84;5041874;28;20036;-79
2021/07/05 03:46:07;;;;;;;2.70;1.35;;;;;;;17.13;nan;99993.28;5038019;28;20089;-79
2021/07/05 03:48:32;;;;;;;3.63;1.20;;;;;;;17.11;nan;99995.34;5029642;28;20053;-77
2021/07/05 03:50:57;;;;;;;2.35;1.35;;;;;;;17.15;nan;99997.41;5051065;28;20050;-78
2021/07/05 03:53:23;;;;;;;1.60;1.08;;;;;;;17.15;nan;100007.25;5036083;28;20043;-78
2021/07/05 03:55:48;;;;;;;2.03;1.25;;;;;;;17.18;nan;99999.66;5040770;28;20053;-78
2021/07/05 03:58:16;;;;;;;2.33;1.30;;;;;;;17.21;nan;99995.75;5040672;28;20025;-78
2021/07/05 04:00:42;;;;;;;3.60;1.30;;;;;;;17.25;nan;100002.31;5035575;28;20044;-78
2021/07/05 04:03:08;;;;;;;2.38;1.40;;;;;;;17.27;nan;100000.25;5036968;28;20033;-79
2021/07/05 04:05:34;;;;;;;2.95;1.33;;;;;;;17.29;nan;100002.72;5040177;28;20033;-79
2021/07/05 04:08:02;;;;;;;2.10;1.30;;;;;;;17.37;nan;100011.31;5034115;28;20045;-78
2021/07/05 04:10:28;;;;;;;1.85;1.30;;;;;;;17.41;nan;100009.06;5036234;28;20029;-79
2021/07/05 04:12:53;;;;;;;2.47;1.27;;;;;;;17.40;nan;100005.59;5030906;28;20585;-78
2021/07/05 04:15:20;;;;;;;1.70;1.30;;;;;;;17.41;nan;100009.06;5024266;28;20038;-79
2021/07/05 04:17:46;;;;;;;3.08;1.30;;;;;;;17.36;nan;100004.34;5026474;28;20037;-77
2021/07/05 04:20:15;;;;;;;4.07;1.50;;;;;;;17.43;nan;100011.53;5034425;28;20029;-78
2021/07/05 04:22:42;;;;;;;2.08;1.35;;;;;;;17.41;nan;100014.41;5037660;28;20490;-78
2021/07/05 04:25:08;;;;;;;3.40;1.30;;;;;;;17.44;nan;100011.31;5036857;28;20040;-78
2021/07/05 04:27:34;;;;;;;2.00;1.35;;;;;;;17.40;nan;100015.47;5048728;28;20041;-78
2021/07/05 04:30:00;;;;;;;3.45;1.40;;;;;;;17.35;nan;100013.41;5042318;28;20042;-78
2021/07/05 04:32:25;;;;;;;3.75;1.35;;;;;;;17.43;nan;100020.38;5039944;28;20033;-78
2021/07/05 04:34:50;;;;;;;2.65;1.35;;;;;;;17.36;nan;100022.25;5038966;28;20051;-79
2021/07/05 04:37:16;;;;;;;2.00;1.20;;;;;;;17.41;nan;100019.75;5035651;28;20390;-78
2021/07/05 04:39:41;;;;;;;2.55;1.50;;;;;;;17.41;nan;100020.56;5018594;28;20050;-77
2021/07/05 04:42:07;;;;;;;2.72;1.50;;;;;;;17.45;nan;100020.16;5036509;28;20410;-78
2021/07/05 04:44:32;;;;;;;3.08;1.30;;;;;;;17.47;nan;100015.41;5037543;28;20037;-79
2021/07/05 04:46:58;;;;;;;1.63;1.10;;;;;;;17.43;nan;100008.88;5023539;28;20057;-79
2021/07/05 04:49:26;;;;;;;3.65;1.30;;;;;;;17.46;nan;100011.13;5021077;28;20081;-78
2021/07/05 04:51:52;;;;;;;2.03;1.30;;;;;;;17.44;nan;100011.31;5039573;28;20034;-77
2021/07/05 04:54:17;;;;;;;3.08;1.20;;;;;;;17.46;nan;100008.44;5056998;28;20029;-77
2021/07/05 04:56:43;;;;;;;3.05;1.20;;;;;;;17.50;nan;100015.84;5034952;28;20038;-78
2021/07/05 04:59:12;;;;;;;1.60;1.10;;;;;;;17.47;nan;100010.91;5040721;28;20037;-78
2021/07/05 05:01:38;;;;;;;1.88;1.17;;;;;;;17.52;nan;100008.44;5043195;28;20042;-78
2021/07/05 05:04:03;;;;;;;2.60;1.50;;;;;;;17.62;nan;100010.66;5038413;28;20033;-78
2021/07/05 05:06:29;;;;;;;2.65;1.00;;;;;;;17.56;nan;100022.19;5056101;28;20049;-78
2021/07/05 05:08:55;;;;;;;2.65;1.52;;;;;;;17.59;nan;100019.94;5048141;28;20036;-77
2021/07/05 05:11:21;;;;;;;2.35;1.38;;;;;;;17.63;nan;100015.78;5064209;28;20037;-78
2021/07/05 05:13:47;;;;;;;2.25;1.48;;;;;;;17.61;nan;100025.03;5045420;28;20042;-78
2021/07/05 05:16:12;;;;;;;2.15;1.33;;;;;;;17.61;nan;100028.56;5033761;28;20044;-77
2021/07/05 05:18:41;;;;;;;2.15;1.40;;;;;;;17.55;nan;100039.28;5033369;28;20042;-78
2021/07/05 05:21:06;;;;;;;3.05;1.70;;;;;;;17.53;nan;100027.97;5036135;28;20041;-79
2021/07/05 05:23:32;;;;;;;2.83;1.52;;;;;;;17.51;nan;100027.34;5036085;28;20030;-78
2021/07/05 05:25:58;;;;;;;3.28;1.70;;;;;;;17.51;nan;100036.19;5041428;28;20059;-79
2021/07/05 05:28:23;;;;;;;4.35;1.50;;;;;;;17.51;nan;100035.38;5029299;28;20041;-78
2021/07/05 05:30:49;;;;;;;3.50;1.65;;;;;;;17.49;nan;100043.59;5021868;28;20026;-78
2021/07/05 05:33:14;;;;;;;1.83;1.50;;;;;;;17.51;nan;100044.19;5028105;28;20033;-78
2021/07/05 05:35:39;;;;;;;3.85;1.70;;;;;;;17.45;nan;100039.72;5060075;28;20106;-78
2021/07/05 05:38:05;;;;;;;3.25;1.40;;;;;;;17.35;nan;100037.47;5050411;28;20029;-79
2021/07/05 05:40:31;;;;;;;3.92;1.50;;;;;;;17.39;nan;100037.84;5022139;28;20049;-79
2021/07/05 05:42:56;;;;;;;4.85;1.70;;;;;;;17.41;nan;100035.81;5015783;28;20038;-78
2021/07/05 05:45:22;;;;;;;5.50;1.80;;;;;;;17.43;nan;100027.59;5031724;28;20036;-78
2021/07/05 05:47:48;;;;;;;4.70;1.58;;;;;;;17.49;nan;100024.88;5024663;28;20102;-78
2021/07/05 05:50:14;;;;;;;3.25;1.80;;;;;;;17.62;nan;100024.03;5025775;28;20061;-79
2021/07/05 05:52:40;;;;;;;2.90;1.60;;;;;;;17.65;nan;100023.59;5016053;28;20034;-79
2021/07/05 05:55:06;;;;;;;2.83;1.60;;;;;;;17.70;nan;100031.00;5016605;28;20464;-79
2021/07/05 05:57:33;;;;;;;2.15;1.40;;;;;;;17.78;nan;100026.25;5034331;28;20120;-79
2021/07/05 06:00:01;;;;;;;4.85;1.90;;;;;;;17.81;nan;100033.06;5049799;28;20053;-80
2021/07/05 06:02:27;;;;;;;2.38;1.90;;;;;;;17.90;nan;100030.94;5049739;28;20632;-79
2021/07/05 06:04:53;;;;;;;4.25;1.40;;;;;;;17.95;nan;100029.28;5051609;28;20288;-79
2021/07/05 06:07:19;;;;;;;2.10;1.40;;;;;;;18.09;nan;100038.09;5036443;28;20029;-79
2021/07/05 06:09:45;;;;;;;3.47;1.50;;;;;;;18.14;nan;100038.28;5034693;28;20058;-79
2021/07/05 06:12:10;;;;;;;2.50;1.42;;;;;;;18.20;nan;100042.75;5035263;28;20033;-79
2021/07/05 06:14:36;;;;;;;5.25;1.60;;;;;;;18.12;nan;100044.88;5049580;28;20056;-79
2021/07/05 06:17:02;;;;;;;2.55;1.55;;;;;;;18.11;nan;100046.69;5036195;28;20036;-79
2021/07/05 06:19:28;;;;;;;4.35;1.80;;;;;;;18.15;nan;100049.78;5034782;28;20093;-79
2021/07/05 06:21:53;;;;;;;4.80;1.77;;;;;;;18.15;nan;100047.13;5050642;28;20075;-79
2021/07/05 06:24:19;;;;;;;2.90;1.60;;;;;;;18.23;nan;100041.50;5034872;28;20054;-79
2021/07/05 06:26:44;;;;;;;5.13;1.65;;;;;;;18.28;nan;100051.56;5034491;28;20033;-79
2021/07/05 06:29:09;;;;;;;4.63;1.50;;;;;;;18.22;nan;100043.38;5054119;28;20045;-79
2021/07/05 06:31:36;;;;;;;3.80;1.50;;;;;;;18.20;nan;100042.75;5051822;28;20034;-80
2021/07/05 06:34:03;;;;;;;3.03;1.42;;;;;;;18.30;nan;100047.63;5050645;28;20048;-80
2021/07/05 06:36:28;;;;;;;2.72;1.50;;;;;;;18.28;nan;100044.34;5035661;28;20033;-80
2021/07/05 06:38:54;;;;;;;4.10;1.67;;;;;;;18.40;nan;100045.34;5052841;28;20446;-80
2021/07/05 06:41:19;;;;;;;4.50;1.50;;;;;;;18.42;nan;100047.78;5034475;28;20037;-79
2021/07/05 06:43:45;;;;;;;2.03;1.20;;;;;;;18.46;nan;100036.44;5035877;28;20426;-79
2021/07/05 06:46:10;;;;;;;3.22;1.48;;;;;;;18.53;nan;100043.63;5035960;28;20030;-80
2021/07/05 06:48:36;;;;;;;4.30;1.50;;;;;;;18.46;nan;100036.44;5037570;28;20056;-80
2021/07/05 06:51:02;;;;;;;1.90;1.30;;;;;;;18.58;nan;100043.78;5038192;28;20099;-80
2021/07/05 06:53:27;;;;;;;2.42;1.17;;;;;;;18.55;nan;100041.53;5052378;28;20124;-79
2021/07/05 06:55:53;;;;;;;4.18;1.30;;;;;;;18.55;nan;100041.53;5041634;28;20060;-79
2021/07/05 06:58:18;;;;;;;4.10;1.20;;;;;;;18.47;nan;100042.59;5036506;28;20558;-79
2021/07/05 07:00:45;;;;;;;2.08;1.10;;;;;;;18.46;nan;100049.81;5039174;28;20048;-79
2021/07/05 07:03:11;;;;;;;4.22;1.40;;;;;;;18.27;nan;100047.25;5043201;28;20036;-79
2021/07/05 07:05:36;;;;;;;3.45;1.20;;;;;;;18.29;nan;100046.00;5040578;28;20029;-80
2021/07/05 07:08:03;;;;;;;1.50;1.02;;;;;;;18.46;nan;100052.50;5041556;28;20044;-79
2021/07/05 07:10:28;;;;;;;2.85;1.30;;;;;;;18.45;nan;100040.16;5042679;28;20036;-80
2021/07/05 07:12:55;;;;;;;3.20;1.40;;;;;;;18.56;nan;100043.97;5060471;28;20060;-80
2021/07/05 07:15:27;;;;;;;1.92;1.10;;;;;;;18.56;nan;100040.50;5041465;28;20040;-80
2021/07/05 07:20:18;;;;;;;3.67;1.30;;;;;;;18.73;nan;100043.47;5041186;28;20037;-78
2021/07/05 07:22:43;;;;;;;1.75;1.20;;;;;;;18.75;nan;100044.06;5040517;28;20037;-80
2021/07/05 07:25:12;;;;;;;3.17;1.25;;;;;;;18.80;nan;100057.66;5041859;28;20133;-80
2021/07/05 07:27:38;;;;;;;2.92;1.60;;;;;;;18.77;nan;100045.53;5041021;28;20056;-80
2021/07/05 07:30:06;;;;;;;2.20;1.20;;;;;;;18.74;nan;100051.28;5042194;28;20044;-80
2021/07/05 07:32:32;;;;;;;2.22;1.30;;;;;;;18.86;nan;100056.81;5041121;28;20452;-79
2021/07/05 07:34:58;;;;;;;4.35;1.80;;;;;;;18.80;nan;100045.09;5054592;28;20041;-80
2021/07/05 07:37:23;;;;;;;4.90;1.30;;;;;;;18.86;nan;100046.91;5037548;28;20034;-79
2021/07/05 07:39:56;;;;;;;3.17;1.30;;;;;;;18.79;nan;100056.03;5036578;28;20284;-79
2021/07/05 07:42:21;;;;;;;3.97;1.20;;;;;;;18.74;nan;100050.47;5037291;28;20221;-79
2021/07/05 07:44:46;;;;;;;3.25;1.40;;;;;;;18.82;nan;100056.41;5037528;28;20382;-79
2021/07/05 07:47:12;;;;;;;2.92;1.25;;;;;;;18.67;nan;100058.56;5037319;28;20466;-78
2021/07/05 07:49:37;;;;;;;3.35;1.55;;;;;;;18.73;nan;100056.84;5037683;28;20116;-81
2021/07/05 07:52:04;;;;;;;3.17;1.30;;;;;;;18.77;nan;100053.56;5036941;28;20045;-79
2021/07/05 07:54:30;;;;;;;3.55;1.42;;;;;;;18.73;nan;100052.31;5037806;28;20102;-79
2021/07/05 07:56:55;;;;;;;4.82;1.40;;;;;;;18.77;nan;100048.19;5038381;28;20034;-81
2021/07/05 07:59:21;;;;;;;3.17;1.48;;;;;;;18.73;nan;100046.97;5033753;28;20049;-81
2021/07/05 08:01:47;;;;;;;4.88;1.55;;;;;;;18.86;nan;100043.41;5017700;28;20156;-80
2021/07/05 08:04:13;;;;;;;5.43;1.52;;;;;;;19.03;nan;100035.66;5013419;28;20041;-79
2021/07/05 08:06:39;;;;;;;2.92;1.50;;;;;;;19.15;nan;100043.78;5036061;28;20492;-80
2021/07/05 08:09:06;;;;;;;3.30;1.10;;;;;;;19.28;nan;100043.66;5038285;28;20238;-80
2021/07/05 08:11:32;;;;;;;1.73;1.20;;;;;;;19.29;nan;100040.75;5050685;28;20033;-79
2021/07/05 08:14:00;;;;;;;2.67;1.00;;;;;;;19.39;nan;100048.28;5037321;28;20068;-80
2021/07/05 08:16:25;;;;;;;2.25;1.13;;;;;;;19.38;nan;100051.19;5053694;28;20087;-79
2021/07/05 08:18:51;;;;;;;4.00;0.90;;;;;;;19.39;nan;100040.25;5037340;28;20037;-80
2021/07/05 08:21:17;;;;;;;2.10;1.00;;;;;;;19.42;nan;100042.47;5052702;28;20040;-79
2021/07/05 08:23:43;;;;;;;3.03;1.02;;;;;;;19.40;nan;100033.03;5033193;28;20494;-80
2021/07/05 08:26:08;;;;;;;2.85;1.30;;;;;;;19.56;nan;100035.13;5037008;28;20036;-79
2021/07/05 08:28:34;;;;;;;2.58;1.10;;;;;;;19.69;nan;100035.03;5036590;28;20124;-79
2021/07/05 08:31:01;;;;;;;1.90;1.00;;;;;;;19.67;nan;100037.06;5035639;28;20111;-79
2021/07/05 08:33:27;;;;;;;2.58;1.00;;;;;;;19.74;nan;100029.00;5036546;28;20033;-79
2021/07/05 08:35:52;;;;;;;2.33;1.25;;;;;;;19.72;nan;100029.19;5032659;28;20114;-81
2021/07/05 08:38:18;;;;;;;2.03;1.20;;;;;;;19.81;nan;100029.72;5015928;28;20030;-80
2021/07/05 08:40:43;;;;;;;3.58;1.10;;;;;;;19.96;nan;100020.47;5022919;28;20045;-81
2021/07/05 08:43:09;;;;;;;1.35;0.80;;;;;;;20.21;nan;100028.38;5038817;28;20279;-81
2021/07/05 08:45:36;;;;;;;2.47;1.25;;;;;;;20.30;nan;100032.41;5053046;28;20041;-81
2021/07/05 08:48:03;;;;;;;1.80;1.00;;;;;;;20.26;nan;100029.38;5037326;28;20410;-82
2021/07/05 08:50:29;;;;;;;2.58;1.20;;;;;;;20.38;nan;100021.34;5034691;28;20108;-81
2021/07/05 08:52:56;;;;;;;2.67;1.10;;;;;;;20.39;nan;100033.72;5037280;28;20041;-81
2021/07/05 08:55:24;;;;;;;1.92;1.10;;;;;;;20.40;nan;100026.47;5035006;28;20060;-80
2021/07/05 08:57:50;;;;;;;2.20;1.20;;;;;;;20.36;nan;100015.38;5037059;28;20049;-80
2021/07/05 09:00:27;;;;;;;2.92;1.30;;;;;;;20.29;nan;100028.09;5035320;28;20044;-80
2021/07/05 09:02:55;;;;;;;2.80;1.30;;;;;;;20.35;nan;100028.00;5036899;28;20033;-80
2021/07/05 09:05:21;;;;;;;2.42;1.20;;;;;;;20.47;nan;100019.94;5036280;28;20033;-81
2021/07/05 09:08:09;;;;;;;1.85;1.05;;;;;;;20.39;nan;100017.59;5035613;28;20376;-80
2021/07/05 09:10:52;;;;;;;3.33;1.15;;;;;;;20.41;nan;100022.75;5032172;28;20038;-81
2021/07/05 09:13:23;;;;;;;2.95;1.30;;;;;;;20.47;nan;100019.94;5038662;28;20033;-81
2021/07/05 09:15:50;;;;;;;;;;;;;;;20.39;nan;100016.78;5036094;28;20544;-79
2021/07/05 09:18:27;;;;;;;1.73;1.10;;;;;;;20.34;nan;100015.59;5050146;28;19913;-80
2021/07/05 09:20:53;;;;;;;3.60;1.00;;;;;;;20.36;nan;100012.69;5034422;28;20045;-81
2021/07/05 09:23:20;;;;;;;2.35;1.10;;;;;;;20.37;nan;100020.50;5050955;28;20505;-79
2021/07/05 09:25:48;;;;;;;2.05;0.90;;;;;;;20.29;nan;100018.16;5034817;28;20064;-79
2021/07/05 09:28:20;;;;;;;2.97;1.00;;;;;;;20.23;nan;100023.63;5034593;28;20507;-79
2021/07/05 09:30:49;;;;;;;2.05;0.90;;;;;;;20.33;nan;100018.50;5036547;28;20124;-79
2021/07/05 09:33:20;;;;;;;1.77;0.98;;;;;;;20.18;nan;100028.84;5026777;28;20034;-80
2021/07/05 09:35:53;;;;;;;2.28;1.20;;;;;;;20.05;nan;100022.63;5029819;28;20505;-80
2021/07/05 09:38:29;;;;;;;1.77;1.05;;;;;;;19.81;nan;100031.59;5034850;28;20104;-79
2021/07/05 09:40:54;;;;;;;3.30;1.10;;;;;;;19.66;nan;100018.50;5037484;28;20045;-78
2021/07/05 09:43:25;;;;;;;3.65;1.13;;;;;;;19.54;nan;100010.38;5048752;28;20399;-80
2021/07/05 09:45:50;;;;;;;3.08;1.17;;;;;;;19.57;nan;100018.00;5052036;28;20464;-79
2021/07/05 09:48:18;;;;;;;2.65;1.20;;;;;;;19.52;nan;100023.19;5035786;28;20052;-80
2021/07/05 09:50:45;;;;;;;2.72;1.38;;;;;;;19.81;nan;100023.56;5022930;28;20061;-77
2021/07/05 09:53:25;;;;;;;1.67;0.93;;;;;;;19.71;nan;100026.72;5024318;28;20057;-80
2021/07/05 09:55:50;;;;;;;2.17;1.10;;;;;;;19.70;nan;100025.91;5050324;28;20025;-79
2021/07/05 09:58:15;;;;;;;2.33;1.13;;;;;;;19.60;nan;100020.22;5031758;28;20128;-80
2021/07/05 10:00:41;;;;;;;2.22;1.23;;;;;;;19.12;nan;100018.25;5036123;28;20521;-80
2021/07/05 10:03:09;;;;;;;1.92;1.10;;;;;;;19.01;nan;100018.97;5051331;28;20109;-80
2021/07/05 10:05:43;;;;;;;1.80;1.00;;;;;;;19.03;nan;100023.06;5029194;28;20068;-80
2021/07/05 10:08:10;;;;;;;1.48;1.13;;;;;;;19.04;nan;100023.88;5034332;28;20053;-81
2021/07/05 10:10:38;;;;;;;3.33;1.30;;;;;;;19.06;nan;100019.13;5035773;28;20041;-81
2021/07/05 10:13:06;;;;;;;2.58;1.10;;;;;;;19.03;nan;100023.06;5034756;28;20041;-81
2021/07/05 10:15:33;;;;;;;2.53;1.10;;;;;;;19.04;nan;100018.50;5051465;28;20040;-80
2021/07/05 10:17:59;;;;;;;2.53;1.00;;;;;;;19.00;nan;100017.34;5037411;28;20419;-80
2021/07/05 10:20:33;;;;;;;1.15;0.85;;;;;;;18.89;nan;100019.66;5035146;28;20033;-80
2021/07/05 10:23:01;;;;;;;3.67;1.15;;;;;;;18.80;nan;100025.53;5036598;28;20033;-80
2021/07/05 10:25:30;;;;;;;3.97;1.27;;;;;;;18.57;nan;100016.19;5035947;28;20040;-81
2021/07/05 10:27:56;;;;;;;2.22;1.13;;;;;;;18.38;nan;100001.09;5036874;28;20033;-80
2021/07/05 10:30:23;;;;;;;2.55;1.00;;;;;;;18.50;nan;100017.28;5036032;28;20483;-81
2021/07/05 10:32:49;;;;;;;1.98;1.13;;;;;;;18.64;nan;100016.16;5035587;28;20299;-80
2021/07/05 10:35:17;;;;;;;2.22;1.17;;;;;;;18.66;nan;100016.72;5036193;28;20068;-81
2021/07/05 10:37:56;;;;;;;1.85;1.30;;;;;;;18.73;nan;100008.66;5052423;28;20091;-81
2021/07/05 10:40:47;;;;;;;2.25;1.15;;;;;;;18.80;nan;100004.09;5036570;28;20034;-80
2021/07/05 10:43:19;;;;;;;3.10;1.27;;;;;;;18.88;nan;100014.56;5052659;28;20034;-80
2021/07/05 10:45:54;;;;;;;2.47;1.13;;;;;;;18.98;nan;100011.38;5038137;28;20434;-80
2021/07/05 10:48:31;;;;;;;3.72;1.40;;;;;;;19.15;nan;100011.63;5036528;28;20116;-80
2021/07/05 10:50:58;;;;;;;3.05;1.40;;;;;;;19.28;nan;100016.84;5039229;28;20045;-80
2021/07/05 10:53:33;;;;;;;3.25;1.42;;;;;;;19.31;nan;100006.50;5051366;28;20502;-80
2021/07/05 10:56:00;;;;;;;3.42;1.50;;;;;;;19.25;nan;100007.38;5051261;28;20041;-80
2021/07/05 10:58:28;;;;;;;2.67;1.38;;;;;;;19.03;nan;100012.34;5050497;28;20041;-80
2021/07/05 11:01:02;;;;;;;2.90;1.30;;;;;;;18.71;nan;100013.41;5035391;28;20045;-81
2021/07/05 11:03:40;;;;;;;2.17;1.00;;;;;;;18.80;nan;100004.91;5052400;28;20037;-81
2021/07/05 11:06:28;;;;;;;2.17;1.33;;;;;;;19.05;nan;99996.06;5035984;28;20045;-81
2021/07/05 11:08:54;;;;;;;3.08;1.58;;;;;;;19.10;nan;99993.53;5036671;28;20595;-80
2021/07/05 11:11:32;;;;;;;2.75;1.50;;;;;;;18.86;nan;99996.00;5034262;28;20045;-80
2021/07/05 11:14:34;;;;;;;4.28;1.90;;;;;;;18.93;nan;99992.47;5035889;28;20042;-80
2021/07/05 11:17:05;;;;;;;3.92;1.80;;;;;;;18.97;nan;99986.41;5025862;28;20056;-79
2021/07/05 11:19:51;;;;;;;2.50;1.70;;;;;;;19.09;nan;99982.00;5014844;28;20057;-80
2021/07/05 11:22:25;;;;;;;3.95;1.70;;;;;;;19.33;nan;99982.19;5030605;28;20059;-79
2021/07/05 11:25:17;;;;;;;3.33;1.67;;;;;;;19.40;nan;99987.44;5019704;28;20126;-79
2021/07/05 11:27:57;;;;;;;2.35;1.30;;;;;;;19.49;nan;99986.09;5044103;28;20049;-80
2021/07/05 11:30:41;;;;;;;2.90;1.50;;;;;;;19.48;nan;99984.47;5035288;28;20589;-81
2021/07/05 11:33:06;;;;;;;2.28;1.30;;;;;;;19.56;nan;99984.16;5025149;28;20486;-80
2021/07/05 11:35:33;;;;;;;4.13;1.30;;;;;;;19.65;nan;99972.09;5017202;28;20034;-79
2021/07/05 11:38:05;;;;;;;2.00;1.20;;;;;;;19.91;nan;99983.56;5031758;28;20303;-81
2021/07/05 11:40:51;;;;;;;3.70;1.30;;;;;;;20.05;nan;99978.88;5039594;28;20091;-80
2021/07/05 11:43:37;;;;;;;2.45;1.20;;;;;;;20.24;nan;99966.22;5047195;28;20116;-79
2021/07/05 11:46:03;;;;;;;2.72;1.40;;;;;;;20.33;nan;99964.81;5035753;28;20075;-80
2021/07/05 11:48:41;;;;;;;2.35;1.10;;;;;;;20.40;nan;99962.03;5038619;28;20040;-80
2021/07/05 11:51:35;;;;;;;2.10;1.15;;;;;;;20.56;nan;99974.81;5054657;28;20044;-80
2021/07/05 11:54:15;;;;;;;2.78;1.02;;;;;;;20.38;nan;99964.97;5038592;28;20029;-79